TimeMDT,TemperatureF,Dew PointF,Humidity,Sea Level PressureIn,VisibilityMPH,Wind Direction,Wind SpeedMPH,Gust SpeedMPH,PrecipitationIn,Events,Conditions,WindDirDegrees,DateUTC
12:15 AM,17.8,11.1,75,30.24,10.0,NNW,15.0,-,N/A,,Clear,340,2013-03-25 06:15:00
12:35 AM,17.8,11.3,76,30.25,10.0,NW,10.4,-,N/A,,Clear,320,2013-03-25 06:35:00
12:55 AM,17.4,11.3,77,30.24,10.0,NNW,11.5,-,N/A,,Clear,340,2013-03-25 06:55:00
1:15 AM,18.3,11.3,74,30.24,10.0,NNW,16.1,-,N/A,,Clear,340,2013-03-25 07:15:00
1:35 AM,17.2,10.9,76,30.25,10.0,NNW,10.4,-,N/A,,Clear,330,2013-03-25 07:35:00
1:55 AM,16.5,10.9,79,30.25,10.0,NNW,9.2,-,N/A,,Clear,330,2013-03-25 07:55:00
2:15 AM,15.3,10.4,81,30.26,10.0,NW,8.1,-,N/A,,Clear,320,2013-03-25 08:15:00
2:35 AM,16.3,10.6,78,30.26,10.0,NNW,9.2,-,N/A,,Clear,330,2013-03-25 08:35:00
2:55 AM,16.7,10.4,76,30.25,10.0,NNW,11.5,-,N/A,,Clear,330,2013-03-25 08:55:00
3:15 AM,14.9,9.5,79,30.26,10.0,WNW,9.2,-,N/A,,Clear,290,2013-03-25 09:15:00
3:35 AM,12.6,7.7,81,30.26,10.0,WNW,8.1,-,N/A,,Clear,290,2013-03-25 09:35:00
3:55 AM,12.7,8.1,82,30.25,10.0,WNW,10.4,-,N/A,,Clear,300,2013-03-25 09:55:00
4:15 AM,12.9,8.1,81,30.25,10.0,NW,10.4,-,N/A,,Clear,310,2013-03-25 10:15:00
4:35 AM,13.1,8.4,82,30.26,10.0,NW,10.4,-,N/A,,Clear,320,2013-03-25 10:35:00
4:55 AM,13.1,8.2,81,30.26,10.0,NW,10.4,-,N/A,,Clear,320,2013-03-25 10:55:00
5:15 AM,12.9,7.9,80,30.26,10.0,NW,6.9,-,N/A,,Clear,310,2013-03-25 11:15:00
5:35 AM,12.2,7.7,82,30.27,10.0,NW,4.6,-,N/A,,Clear,310,2013-03-25 11:35:00
5:55 AM,12.6,7.7,81,30.27,10.0,NW,8.1,-,N/A,,Clear,310,2013-03-25 11:55:00
6:15 AM,12.0,7.3,81,30.27,10.0,WNW,6.9,-,N/A,,Clear,300,2013-03-25 12:15:00
6:35 AM,11.3,6.8,82,30.28,10.0,WNW,8.1,-,N/A,,Clear,300,2013-03-25 12:35:00
6:55 AM,11.3,6.8,82,30.29,10.0,WNW,6.9,-,N/A,,Clear,300,2013-03-25 12:55:00
7:15 AM,12.0,7.3,81,30.29,10.0,WNW,6.9,-,N/A,,Clear,300,2013-03-25 13:15:00
7:35 AM,13.1,8.2,81,30.29,10.0,WNW,6.9,-,N/A,,Clear,290,2013-03-25 13:35:00
7:55 AM,15.1,9.7,79,30.29,10.0,NW,9.2,-,N/A,,Clear,320,2013-03-25 13:55:00
8:15 AM,16.7,10.4,76,30.30,10.0,NW,11.5,-,N/A,,Clear,320,2013-03-25 14:15:00
8:35 AM,17.6,10.8,75,30.30,10.0,NW,10.4,-,N/A,,Clear,320,2013-03-25 14:35:00
8:55 AM,18.9,11.1,72,30.30,10.0,NNW,12.7,-,N/A,,Clear,330,2013-03-25 14:55:00
9:15 AM,19.8,11.1,69,30.30,10.0,NNW,15.0,19.6,N/A,,Clear,330,2013-03-25 15:15:00
9:35 AM,21.0,11.5,67,30.30,10.0,NNW,12.7,-,N/A,,Clear,330,2013-03-25 15:35:00
9:55 AM,21.7,11.5,65,30.30,10.0,NW,12.7,16.1,N/A,,Scattered Clouds,320,2013-03-25 15:55:00
10:15 AM,22.5,11.1,62,30.30,10.0,NNW,12.7,19.6,N/A,,Scattered Clouds,330,2013-03-25 16:15:00
10:35 AM,22.8,12.0,63,30.31,10.0,NNW,11.5,19.6,N/A,,Scattered Clouds,340,2013-03-25 16:35:00
10:55 AM,23.5,12.2,62,30.31,10.0,NNW,12.7,-,N/A,,Mostly Cloudy,330,2013-03-25 16:55:00
11:15 AM,24.1,12.2,61,30.30,10.0,WNW,10.4,17.3,N/A,,Mostly Cloudy,300,2013-03-25 17:15:00
11:35 AM,25.5,12.6,58,30.30,10.0,NW,10.4,17.3,N/A,,Scattered Clouds,320,2013-03-25 17:35:00
11:55 AM,26.6,12.2,55,30.29,10.0,NW,15.0,-,N/A,,Scattered Clouds,320,2013-03-25 17:55:00
12:15 PM,27.5,12.7,54,30.29,10.0,NW,10.4,18.4,N/A,,Scattered Clouds,320,2013-03-25 18:15:00
12:35 PM,28.2,13.1,53,30.28,10.0,NNW,12.7,17.3,N/A,,Scattered Clouds,330,2013-03-25 18:35:00
12:55 PM,28.9,12.2,50,30.28,10.0,NNW,13.8,18.4,N/A,,Scattered Clouds,330,2013-03-25 18:55:00
1:15 PM,29.3,13.1,51,30.27,10.0,NNW,11.5,17.3,N/A,,Scattered Clouds,340,2013-03-25 19:15:00
1:35 PM,30.6,13.6,50,30.27,10.0,NNW,13.8,20.7,N/A,,Scattered Clouds,340,2013-03-25 19:35:00
1:55 PM,31.1,13.1,47,30.27,10.0,NW,8.1,18.4,N/A,,Clear,320,2013-03-25 19:55:00
2:15 PM,31.8,13.1,46,30.25,10.0,NNW,8.1,-,N/A,,Clear,330,2013-03-25 20:15:00
2:35 PM,32.0,12.9,45,30.25,10.0,North,9.2,-,N/A,,Clear,350,2013-03-25 20:35:00
2:55 PM,32.4,12.7,44,30.25,10.0,North,11.5,17.3,N/A,,Clear,350,2013-03-25 20:55:00
3:15 PM,32.4,12.7,44,30.24,10.0,North,13.8,-,N/A,,Clear,360,2013-03-25 21:15:00
3:35 PM,32.7,11.8,42,30.24,10.0,North,10.4,-,N/A,,Clear,360,2013-03-25 21:35:00
3:55 PM,32.7,12.0,42,30.24,10.0,North,12.7,16.1,N/A,,Clear,360,2013-03-25 21:55:00
4:15 PM,32.9,11.3,41,30.24,10.0,North,4.6,-,N/A,,Clear,10,2013-03-25 22:15:00
4:35 PM,33.3,11.3,40,30.24,10.0,North,6.9,-,N/A,,Clear,10,2013-03-25 22:35:00
4:55 PM,33.1,11.8,41,30.24,10.0,North,6.9,-,N/A,,Clear,360,2013-03-25 22:55:00
5:15 PM,33.4,11.5,40,30.23,10.0,North,8.1,-,N/A,,Clear,10,2013-03-25 23:15:00
5:35 PM,33.3,11.1,40,30.23,10.0,NNE,3.5,-,N/A,,Clear,20,2013-03-25 23:35:00
5:55 PM,32.4,11.8,43,30.24,10.0,ENE,3.5,-,N/A,,Clear,60,2013-03-25 23:55:00
6:15 PM,32.4,11.5,42,30.24,10.0,Calm,Calm,-,N/A,,Clear,0,2013-03-26 00:15:00
6:35 PM,32.2,13.5,46,30.24,10.0,Calm,Calm,-,N/A,,Clear,0,2013-03-26 00:35:00
6:55 PM,32.0,10.4,41,30.24,10.0,Calm,Calm,-,N/A,,Clear,0,2013-03-26 00:55:00
7:15 PM,31.6,11.3,43,30.24,10.0,Calm,Calm,-,N/A,,Clear,0,2013-03-26 01:15:00
7:35 PM,26.4,14.7,61,30.24,10.0,Calm,Calm,-,N/A,,Clear,0,2013-03-26 01:35:00
7:55 PM,25.2,14.2,63,30.25,10.0,Calm,Calm,-,N/A,,Clear,0,2013-03-26 01:55:00
8:15 PM,22.6,14.7,72,30.25,10.0,Calm,Calm,-,N/A,,Clear,0,2013-03-26 02:15:00
8:35 PM,21.0,14.9,77,30.26,10.0,West,3.5,-,N/A,,Clear,260,2013-03-26 02:35:00
8:55 PM,21.6,14.9,76,30.27,10.0,West,4.6,-,N/A,,Clear,270,2013-03-26 02:55:00
9:15 PM,22.1,14.2,72,30.27,10.0,West,5.8,-,N/A,,Clear,260,2013-03-26 03:15:00
9:35 PM,21.2,15.4,78,30.27,10.0,WSW,5.8,-,N/A,,Clear,250,2013-03-26 03:35:00
9:55 PM,20.1,14.7,80,30.27,10.0,West,4.6,-,N/A,,Clear,270,2013-03-26 03:55:00
10:15 PM,20.1,15.1,81,30.27,10.0,West,4.6,-,N/A,,Clear,270,2013-03-26 04:15:00
10:35 PM,18.3,13.6,82,30.27,10.0,West,3.5,-,N/A,,Clear,270,2013-03-26 04:35:00
10:55 PM,18.7,14.0,82,30.27,10.0,West,3.5,-,N/A,,Clear,270,2013-03-26 04:55:00
11:15 PM,17.8,13.8,84,30.27,10.0,WSW,3.5,-,N/A,,Clear,250,2013-03-26 05:15:00
11:35 PM,17.6,13.8,85,30.27,10.0,WSW,4.6,-,N/A,,Clear,250,2013-03-26 05:35:00
11:55 PM,17.6,13.5,84,30.26,10.0,WSW,3.5,-,N/A,,Clear,250,2013-03-26 05:55:00